Time;durP1;ratioP1;P1;durP2;ratioP2;P2;SDS_P1;SDS_P2;PMS_P1;PMS_P2;Temp;Humidity;BMP_temperature;BMP_pressure;BME280_temperature;BME280_humidity;BME280_pressure;Samples;Min_cycle;Max_cycle;Signal;HPM_P1;HPM_P2
2021/10/23 00:01:25;;;;;;;0.20;0.20;;;;;;;3.97;100.00;101152.25;5091068;28;20060;-83
2021/10/23 00:03:53;;;;;;;0.20;0.20;;;;;;;4.03;100.00;101137.91;5092415;28;20066;-83
2021/10/23 00:06:26;;;;;;;0.20;0.20;;;;;;;4.02;100.00;101141.63;5086752;28;20044;-84
2021/10/23 00:08:59;;;;;;;0.20;0.20;;;;;;;4.17;100.00;101143.09;5088774;28;20040;-83
2021/10/23 00:11:32;;;;;;;0.20;0.20;;;;;;;4.14;100.00;101151.66;5080925;28;20044;-84
2021/10/23 00:14:06;;;;;;;0.25;0.25;;;;;;;4.31;100.00;101159.94;5093598;28;20048;-82
2021/10/23 00:16:40;;;;;;;0.20;0.20;;;;;;;4.26;100.00;101160.63;5094766;28;20059;-83
2021/10/23 00:19:14;;;;;;;0.30;0.30;;;;;;;4.26;100.00;101160.63;5088130;28;20040;-83
2021/10/23 00:21:48;;;;;;;0.25;0.25;;;;;;;4.24;100.00;101157.34;5093517;28;20060;-83
2021/10/23 00:24:16;;;;;;;0.20;0.20;;;;;;;4.32;100.00;101175.88;5095310;28;20059;-82
2021/10/23 00:26:44;;;;;;;0.30;0.30;;;;;;;4.32;100.00;101166.97;5099013;28;20052;-82
2021/10/23 00:29:17;;;;;;;0.20;0.20;;;;;;;4.28;100.00;101172.00;5095545;28;20051;-83
2021/10/23 00:31:52;;;;;;;0.30;0.30;;;;;;;4.15;100.00;101185.63;5097875;28;20492;-83
2021/10/23 00:34:25;;;;;;;0.20;0.20;;;;;;;4.16;100.00;101185.41;5095774;28;20055;-83
2021/10/23 00:36:59;;;;;;;0.20;0.20;;;;;;;4.25;100.00;101186.75;5097947;28;20051;-82
2021/10/23 00:39:33;;;;;;;0.20;0.20;;;;;;;4.20;100.00;101183.91;5096253;28;20484;-82
2021/10/23 00:42:06;;;;;;;0.13;0.13;;;;;;;4.09;100.00;101192.72;5096684;28;20514;-83
2021/10/23 00:44:42;;;;;;;0.20;0.20;;;;;;;4.04;100.00;101177.22;5096267;28;20056;-83
2021/10/23 00:47:19;;;;;;;0.20;0.20;;;;;;;4.01;100.00;101193.84;5097866;28;20044;-82
2021/10/23 00:49:51;;;;;;;0.20;0.20;;;;;;;3.98;100.00;101201.53;5095623;28;20047;-84
2021/10/23 00:52:27;;;;;;;0.30;0.30;;;;;;;4.03;100.00;101205.22;5094426;28;20060;-83
2021/10/23 00:55:01;;;;;;;0.22;0.22;;;;;;;3.83;100.00;101183.88;5095065;28;20044;-83
2021/10/23 00:57:34;;;;;;;0.20;0.20;;;;;;;4.14;100.00;101211.72;5095996;28;20059;-83
2021/10/23 01:00:02;;;;;;;0.20;0.20;;;;;;;4.16;100.00;101204.25;5096596;28;20427;-82
2021/10/23 01:02:37;;;;;;;0.20;0.20;;;;;;;4.24;100.00;101201.25;5093350;28;20044;-82
2021/10/23 01:05:11;;;;;;;0.20;0.20;;;;;;;4.24;100.00;101206.66;5100247;28;20044;-83
2021/10/23 01:07:44;;;;;;;0.20;0.20;;;;;;;4.16;100.00;101203.44;5094223;28;20075;-83
2021/10/23 01:10:13;;;;;;;0.30;0.30;;;;;;;4.30;100.00;101214.88;5096872;28;20059;-83
2021/10/23 01:12:42;;;;;;;0.20;0.20;;;;;;;4.37;100.00;101218.31;5100306;28;20048;-83
2021/10/23 01:15:22;;;;;;;0.20;0.20;;;;;;;4.29;100.00;101226.72;5098609;28;20055;-85
2021/10/23 01:17:58;;;;;;;0.20;0.20;;;;;;;4.29;100.00;101224.81;5095153;28;20526;-84
2021/10/23 01:20:34;;;;;;;0.30;0.30;;;;;;;4.31;100.00;101241.59;5096793;28;20067;-84
2021/10/23 01:23:07;;;;;;;0.30;0.30;;;;;;;4.28;100.00;101236.66;5091666;28;20056;-82
2021/10/23 01:26:07;;;;;;;0.20;0.20;;;;;;;4.29;100.00;101256.34;5096137;28;20059;-84
2021/10/23 01:28:41;;;;;;;0.30;0.30;;;;;;;4.23;100.00;101256.19;5097477;28;20040;-83
2021/10/23 01:31:09;;;;;;;0.25;0.25;;;;;;;4.22;100.00;101268.00;5095485;28;20044;-83
2021/10/23 01:33:42;;;;;;;0.20;0.20;;;;;;;4.16;100.00;101271.59;5092838;28;20044;-83
2021/10/23 01:36:15;;;;;;;0.20;0.20;;;;;;;4.26;100.00;101277.28;5088014;28;20051;-83
2021/10/23 01:38:49;;;;;;;0.20;0.20;;;;;;;4.17;100.00;101272.41;5091390;28;20048;-83
2021/10/23 01:41:22;;;;;;;0.20;0.20;;;;;;;4.11;100.00;101270.63;5095964;28;20048;-84
2021/10/23 01:43:55;;;;;;;0.30;0.30;;;;;;;4.11;100.00;101284.09;5081824;28;20048;-84
2021/10/23 01:46:28;;;;;;;0.20;0.20;;;;;;;4.02;100.00;101272.75;5098476;28;20051;-83
2021/10/23 01:48:56;;;;;;;0.10;0.10;;;;;;;4.08;100.00;101283.47;5095168;28;20476;-83
2021/10/23 01:51:31;;;;;;;0.20;0.20;;;;;;;4.15;100.00;101280.72;5091668;28;20059;-84
2021/10/23 01:54:05;;;;;;;0.30;0.30;;;;;;;4.22;100.00;101277.97;5089826;28;20052;-82
2021/10/23 01:56:42;;;;;;;0.30;0.30;;;;;;;4.14;100.00;101306.00;5099934;28;20059;-84
2021/10/23 01:59:10;;;;;;;0.20;0.20;;;;;;;4.18;100.00;101303.69;5096250;28;20055;-83
2021/10/23 02:01:43;;;;;;;0.20;0.20;;;;;;;4.15;100.00;101288.00;5098512;28;20051;-84
2021/10/23 02:04:16;;;;;;;0.30;0.30;;;;;;;4.10;100.00;101294.03;5099912;28;20043;-83
2021/10/23 02:06:46;;;;;;;0.20;0.20;;;;;;;4.19;100.00;101295.41;5092784;28;20500;-84
2021/10/23 02:09:19;;;;;;;0.20;0.20;;;;;;;4.02;100.00;101305.06;5091073;28;20043;-82
2021/10/23 02:11:47;;;;;;;0.30;0.30;;;;;;;4.07;100.00;101306.09;5095756;28;20048;-81
2021/10/23 02:14:20;;;;;;;0.20;0.20;;;;;;;4.11;100.00;101317.22;5100701;28;20044;-83
2021/10/23 02:16:53;;;;;;;0.30;0.30;;;;;;;4.07;100.00;101311.47;5089658;28;20052;-82
2021/10/23 02:19:22;;;;;;;0.22;0.22;;;;;;;4.19;100.00;101303.47;5094232;28;20052;-83
2021/10/23 02:21:57;;;;;;;0.28;0.28;;;;;;;4.19;100.00;101295.41;5098473;28;20476;-83
2021/10/23 02:24:25;;;;;;;0.20;0.20;;;;;;;4.39;100.00;101300.59;5082502;28;20052;-81
2021/10/23 02:27:00;;;;;;;0.20;0.20;;;;;;;4.35;100.00;101302.09;5094928;28;20420;-81
2021/10/23 02:29:33;;;;;;;0.20;0.20;;;;;;;4.47;100.00;101322.91;5096300;28;20043;-82
2021/10/23 02:32:06;;;;;;;0.20;0.20;;;;;;;4.54;100.00;101315.56;5092035;28;20060;-83
2021/10/23 02:34:40;;;;;;;0.20;0.20;;;;;;;4.47;100.00;101329.09;5093478;28;20059;-83
2021/10/23 02:37:09;;;;;;;0.20;0.20;;;;;;;4.48;100.00;101313.78;5112592;28;20059;-83
2021/10/23 02:39:37;;;;;;;0.20;0.20;;;;;;;4.49;100.00;101310.84;5097866;28;20040;-82
2021/10/23 02:42:06;;;;;;;0.30;0.30;;;;;;;4.43;100.00;101317.13;5092832;28;20059;-83
2021/10/23 02:44:35;;;;;;;0.20;0.20;;;;;;;4.44;100.00;101324.16;5093054;28;20055;-82
2021/10/23 02:47:03;;;;;;;0.30;0.30;;;;;;;4.31;100.00;101302.75;5089144;28;20059;-84
2021/10/23 02:49:37;;;;;;;0.30;0.30;;;;;;;4.37;100.00;101320.72;5090673;28;20055;-83
2021/10/23 02:52:13;;;;;;;0.20;0.20;;;;;;;4.48;100.00;101317.28;5104995;28;20059;-83
2021/10/23 02:54:46;;;;;;;0.20;0.20;;;;;;;4.38;100.00;101314.31;5096598;28;20396;-84
2021/10/23 02:57:19;;;;;;;0.20;0.20;;;;;;;4.46;100.00;101321.25;5090385;28;20051;-83
2021/10/23 02:59:52;;;;;;;0.20;0.20;;;;;;;4.45;100.00;101331.22;5084636;28;20051;-84
2021/10/23 03:02:21;;;;;;;0.20;0.20;;;;;;;4.38;100.00;101333.16;5080287;28;20052;-85
2021/10/23 03:04:50;;;;;;;0.20;0.20;;;;;;;4.38;100.00;101331.28;5096454;28;20043;-84
2021/10/23 03:07:20;;;;;;;0.30;0.30;;;;;;;4.28;100.00;101339.06;5096694;28;20484;-84
2021/10/23 03:09:53;;;;;;;0.30;0.30;;;;;;;4.36;100.00;101343.31;5089419;28;20048;-84
2021/10/23 03:12:27;;;;;;;0.20;0.20;;;;;;;4.39;100.00;101343.72;5096465;28;20051;-84
2021/10/23 03:14:56;;;;;;;0.30;0.30;;;;;;;4.35;100.00;101347.06;5109776;28;20056;-84
2021/10/23 03:17:29;;;;;;;0.30;0.30;;;;;;;4.38;100.00;101346.63;5088923;28;20052;-82
2021/10/23 03:20:02;;;;;;;0.30;0.30;;;;;;;4.45;100.00;101343.84;5096996;28;20039;-83
2021/10/23 03:22:37;;;;;;;0.30;0.30;;;;;;;4.48;100.00;101346.94;5096888;28;20044;-83
2021/10/23 03:25:10;;;;;;;0.30;0.30;;;;;;;4.48;100.00;101341.53;5097335;28;20936;-83
2021/10/23 03:27:39;;;;;;;0.25;0.25;;;;;;;4.50;100.00;101344.00;5097175;28;20059;-84
2021/10/23 03:30:12;;;;;;;0.20;0.20;;;;;;;4.56;100.00;101352.03;5097270;28;20032;-83
2021/10/23 03:32:45;;;;;;;0.20;0.20;;;;;;;4.52;100.00;101355.41;5091157;28;20059;-84
2021/10/23 03:35:14;;;;;;;0.30;0.30;;;;;;;4.49;100.00;101358.53;5108229;28;20048;-84
2021/10/23 03:37:48;;;;;;;0.30;0.30;;;;;;;4.45;100.00;101358.16;5093752;28;20047;-83
2021/10/23 03:40:22;;;;;;;0.20;0.20;;;;;;;4.49;100.00;101359.38;5092213;28;20051;-83
2021/10/23 03:42:50;;;;;;;0.30;0.30;;;;;;;4.43;100.00;101360.25;5095032;28;20044;-83
2021/10/23 03:45:24;;;;;;;0.25;0.25;;;;;;;4.45;100.00;101360.88;5095616;28;20080;-83
2021/10/23 03:47:57;;;;;;;0.22;0.22;;;;;;;4.34;100.00;101357.03;5097559;28;20476;-84
2021/10/23 03:50:33;;;;;;;0.20;0.20;;;;;;;4.30;100.00;101365.78;5089245;28;20452;-84
2021/10/23 03:53:03;;;;;;;0.20;0.20;;;;;;;4.28;100.00;101374.09;5094054;28;20044;-84
2021/10/23 03:55:36;;;;;;;0.20;0.20;;;;;;;4.25;100.00;101380.75;5088977;28;20036;-83
2021/10/23 03:58:10;;;;;;;0.30;0.30;;;;;;;4.22;100.00;101373.06;5094983;28;20415;-85
2021/10/23 04:00:39;;;;;;;0.20;0.20;;;;;;;4.20;100.00;101372.47;5094564;28;20079;-84
2021/10/23 04:03:12;;;;;;;0.20;0.20;;;;;;;4.20;100.00;101377.06;5095548;28;20044;-83
2021/10/23 04:05:45;;;;;;;0.20;0.20;;;;;;;4.24;100.00;101372.88;5097775;28;20048;-83
2021/10/23 04:08:20;;;;;;;0.28;0.28;;;;;;;4.13;100.00;101363.63;5092945;28;20492;-85
2021/10/23 04:10:49;;;;;;;0.20;0.20;;;;;;;4.13;100.00;101360.94;5093310;28;20059;-83
2021/10/23 04:13:22;;;;;;;0.22;0.22;;;;;;;4.08;100.00;101383.13;5096308;28;20055;-83
2021/10/23 04:15:55;;;;;;;0.20;0.20;;;;;;;4.04;100.00;101384.63;5078854;28;20057;-83
2021/10/23 04:18:29;;;;;;;0.17;0.17;;;;;;;3.98;100.00;101395.44;5089277;28;20044;-84
2021/10/23 04:21:02;;;;;;;0.20;0.20;;;;;;;4.00;100.00;101391.47;5088650;28;20047;-82
2021/10/23 04:23:36;;;;;;;0.22;0.22;;;;;;;4.00;100.00;101394.19;5089263;28;20064;-83
2021/10/23 04:26:04;;;;;;;0.20;0.20;;;;;;;3.99;100.00;101400.63;5088468;28;20055;-83
2021/10/23 04:28:38;;;;;;;0.13;0.13;;;;;;;3.96;100.00;101397.53;5097152;28;20040;-83
2021/10/23 04:31:11;;;;;;;0.30;0.30;;;;;;;4.01;100.00;101397.72;5094836;28;20044;-83
2021/10/23 04:33:44;;;;;;;0.10;0.10;;;;;;;3.90;100.00;101415.38;5095729;28;20055;-83
2021/10/23 04:36:12;;;;;;;0.28;0.28;;;;;;;3.70;100.00;101404.72;5097826;28;20511;-83
2021/10/23 04:38:42;;;;;;;0.20;0.20;;;;;;;3.74;100.00;101412.19;5104382;28;20055;-83
2021/10/23 04:41:15;;;;;;;0.20;0.20;;;;;;;3.77;100.00;101429.78;5091837;28;20475;-84
2021/10/23 04:43:43;;;;;;;0.20;0.20;;;;;;;3.82;100.00;101424.53;5091602;28;20047;-86
2021/10/23 04:46:17;;;;;;;0.20;0.20;;;;;;;3.80;100.00;101428.47;5090813;28;20503;-81
2021/10/23 04:48:51;;;;;;;0.20;0.20;;;;;;;3.86;100.00;101444.59;5089901;28;20048;-80
2021/10/23 04:51:19;;;;;;;0.30;0.30;;;;;;;3.90;100.00;101443.13;5090647;28;20044;-81
2021/10/23 04:53:49;;;;;;;0.30;0.30;;;;;;;4.01;100.00;101441.63;5090252;28;20500;-81
2021/10/23 04:56:22;;;;;;;0.20;0.20;;;;;;;3.97;100.00;101435.00;5091904;28;20055;-81
2021/10/23 04:58:56;;;;;;;0.20;0.20;;;;;;;4.05;100.00;101440.16;5090337;28;20495;-81
2021/10/23 05:01:29;;;;;;;0.20;0.20;;;;;;;4.11;100.00;101443.84;5087133;28;20060;-80
2021/10/23 05:04:02;;;;;;;0.20;0.20;;;;;;;4.12;100.00;101447.38;5104667;28;20055;-80
2021/10/23 05:06:36;;;;;;;0.20;0.20;;;;;;;4.04;100.00;101446.56;5090124;28;20056;-81
2021/10/23 05:09:10;;;;;;;0.30;0.30;;;;;;;4.01;100.00;101448.88;5094742;28;20484;-81
2021/10/23 05:11:44;;;;;;;0.20;0.20;;;;;;;4.02;100.00;101448.66;5093489;28;20059;-80
2021/10/23 05:14:18;;;;;;;0.22;0.22;;;;;;;4.11;100.00;101457.31;5095693;28;20051;-80
2021/10/23 05:16:47;;;;;;;0.20;0.20;;;;;;;4.00;100.00;101456.13;5093812;28;20059;-80
2021/10/23 05:19:20;;;;;;;0.20;0.20;;;;;;;3.99;100.00;101464.41;5094696;28;20043;-80
2021/10/23 05:21:54;;;;;;;0.20;0.20;;;;;;;4.13;100.00;101457.06;5093590;28;20051;-80
2021/10/23 05:24:24;;;;;;;0.20;0.20;;;;;;;4.14;100.00;101464.13;5093638;28;20047;-81
2021/10/23 05:26:52;;;;;;;0.25;0.25;;;;;;;4.02;100.00;101472.06;5092517;28;20511;-81
2021/10/23 05:29:25;;;;;;;0.20;0.20;;;;;;;3.98;100.00;101469.00;5094901;28;20048;-80
2021/10/23 05:31:53;;;;;;;0.30;0.30;;;;;;;3.87;100.00;101467.81;5091796;28;20044;-81
2021/10/23 05:34:26;;;;;;;0.20;0.20;;;;;;;3.92;100.00;101475.22;5091271;28;20056;-81
2021/10/23 05:36:59;;;;;;;0.20;0.20;;;;;;;3.88;100.00;101477.53;5089374;28;20051;-81
2021/10/23 05:39:34;;;;;;;0.20;0.20;;;;;;;3.84;100.00;101489.78;5087296;28;20052;-81
2021/10/23 05:42:07;;;;;;;0.20;0.20;;;;;;;3.92;100.00;101491.38;5081890;28;20048;-81
2021/10/23 05:44:36;;;;;;;0.20;0.20;;;;;;;3.80;100.00;101493.94;5097548;28;20052;-80
2021/10/23 05:47:04;;;;;;;0.30;0.30;;;;;;;3.87;100.00;101502.00;5092558;28;20063;-80
2021/10/23 05:49:32;;;;;;;0.30;0.30;;;;;;;3.82;100.00;101512.56;5090744;28;20063;-81
2021/10/23 05:52:06;;;;;;;0.20;0.20;;;;;;;3.79;100.00;101511.13;5089028;28;20044;-80
2021/10/23 05:54:37;;;;;;;0.20;0.20;;;;;;;3.73;100.00;101514.69;5092655;28;20048;-81
2021/10/23 05:57:11;;;;;;;0.20;0.20;;;;;;;3.72;100.00;101518.41;5082329;28;20048;-81
2021/10/23 05:59:46;;;;;;;0.22;0.22;;;;;;;3.63;100.00;101523.19;5086346;28;20059;-80
2021/10/23 06:02:24;;;;;;;0.30;0.30;;;;;;;3.60;100.00;101518.25;5085761;28;20060;-80
2021/10/23 06:04:55;;;;;;;0.30;0.30;;;;;;;3.73;100.00;101530.84;5092763;28;20055;-80
2021/10/23 06:07:31;;;;;;;0.15;0.15;;;;;;;3.57;100.00;101511.41;5093555;28;20055;-80
2021/10/23 06:10:05;;;;;;;0.20;0.20;;;;;;;3.67;100.00;101523.59;5089351;28;20047;-81
2021/10/23 06:12:39;;;;;;;0.20;0.20;;;;;;;3.73;100.00;101525.47;5090935;28;20044;-80
2021/10/23 06:15:08;;;;;;;0.20;0.20;;;;;;;3.59;100.00;101524.69;5109385;28;20071;-81
2021/10/23 06:17:41;;;;;;;0.20;0.20;;;;;;;3.62;100.00;101540.41;5091065;28;20044;-80
2021/10/23 06:20:11;;;;;;;0.20;0.20;;;;;;;3.54;100.00;101543.34;5091754;28;20054;-80
2021/10/23 06:22:51;;;;;;;0.20;0.20;;;;;;;3.65;100.00;101550.75;5092152;28;20044;-81
2021/10/23 06:25:26;;;;;;;0.22;0.22;;;;;;;3.68;100.00;101549.50;5091866;28;20056;-80
2021/10/23 06:28:00;;;;;;;0.20;0.20;;;;;;;3.65;100.00;101548.06;5093932;28;20048;-80
2021/10/23 06:30:33;;;;;;;0.20;0.20;;;;;;;3.60;100.00;101547.03;5093619;28;20056;-80
2021/10/23 06:33:06;;;;;;;0.20;0.20;;;;;;;3.67;100.00;101567.50;5085297;28;20048;-81
2021/10/23 06:35:34;;;;;;;0.20;0.20;;;;;;;3.80;100.00;101576.56;5091280;28;20051;-80
2021/10/23 06:38:07;;;;;;;0.20;0.20;;;;;;;3.72;100.00;101583.03;5089560;28;20040;-80
2021/10/23 06:40:37;;;;;;;0.20;0.20;;;;;;;3.72;100.00;101583.84;5081823;28;20052;-80
2021/10/23 06:43:11;;;;;;;0.20;0.20;;;;;;;3.68;100.00;101577.22;5089300;28;20362;-80
2021/10/23 06:45:45;;;;;;;0.20;0.20;;;;;;;3.75;100.00;101582.59;5090183;28;20488;-80
2021/10/23 06:48:13;;;;;;;0.28;0.28;;;;;;;3.78;100.00;101579.47;5090857;28;20055;-79
2021/10/23 06:50:41;;;;;;;0.20;0.20;;;;;;;3.90;100.00;101593.13;5092227;28;20052;-80
2021/10/23 06:53:15;;;;;;;0.20;0.20;;;;;;;3.97;100.00;101593.91;5104064;28;20056;-80
2021/10/23 06:55:50;;;;;;;0.20;0.20;;;;;;;3.87;100.00;101609.72;5091305;28;20048;-80
2021/10/23 06:58:18;;;;;;;0.20;0.20;;;;;;;3.90;100.00;101615.47;5098842;28;20059;-80
2021/10/23 07:00:52;;;;;;;0.20;0.20;;;;;;;3.94;100.00;101609.69;5085177;28;20063;-80
2021/10/23 07:03:25;;;;;;;0.20;0.20;;;;;;;4.06;100.00;101619.59;5087482;28;20052;-81
2021/10/23 07:05:58;;;;;;;0.20;0.20;;;;;;;4.11;100.00;101618.94;5107290;28;20051;-80
2021/10/23 07:08:26;;;;;;;0.20;0.20;;;;;;;4.13;100.00;101627.66;5105070;28;20407;-80
2021/10/23 07:11:01;;;;;;;0.20;0.20;;;;;;;4.07;100.00;101632.03;5089376;28;20048;-80
2021/10/23 07:13:34;;;;;;;0.22;0.22;;;;;;;4.19;100.00;101648.31;5091675;28;20047;-81
2021/10/23 07:16:04;;;;;;;0.30;0.30;;;;;;;4.23;100.00;101662.22;5092174;28;20040;-79
2021/10/23 07:18:32;;;;;;;0.28;0.28;;;;;;;4.32;100.00;101666.31;5088191;28;20056;-80
2021/10/23 07:21:01;;;;;;;0.30;0.30;;;;;;;4.39;100.00;101672.50;5087634;28;20079;-79
2021/10/23 07:23:34;;;;;;;0.10;0.10;;;;;;;4.39;100.00;101674.38;5082262;28;20036;-80
2021/10/23 07:26:09;;;;;;;0.30;0.30;;;;;;;4.37;100.00;101671.88;5086035;28;20044;-80
2021/10/23 07:28:42;;;;;;;0.20;0.20;;;;;;;4.50;100.00;101670.16;5102170;28;20056;-80
2021/10/23 07:31:10;;;;;;;0.30;0.30;;;;;;;4.55;100.00;101673.06;5094241;28;20049;-79
2021/10/23 07:33:38;;;;;;;0.20;0.20;;;;;;;4.54;100.00;101677.63;5102097;28;20075;-80
2021/10/23 07:36:13;;;;;;;0.20;0.20;;;;;;;4.61;100.00;101680.28;5095906;28;20052;-80
2021/10/23 07:38:48;;;;;;;0.20;0.20;;;;;;;4.77;100.00;101687.88;5088523;28;20036;-79
2021/10/23 07:41:22;;;;;;;0.30;0.30;;;;;;;4.82;100.00;101698.03;5088804;28;20467;-83
2021/10/23 07:43:55;;;;;;;0.15;0.15;;;;;;;4.85;100.00;101699.47;5090282;28;20036;-81
2021/10/23 07:47:15;;;;;;;0.30;0.30;;;;;;;4.91;100.00;101696.69;5086259;28;20052;-80
2021/10/23 07:49:43;;;;;;;0.20;0.20;;;;;;;5.00;100.00;101708.09;5097378;28;20408;-86
2021/10/23 07:52:18;;;;;;;0.20;0.20;;;;;;;4.98;100.00;101714.72;5087162;28;20126;-85
2021/10/23 07:54:46;;;;;;;0.30;0.30;;;;;;;5.05;100.00;101712.81;5090872;28;20036;-87
2021/10/23 07:57:21;;;;;;;0.30;0.30;;;;;;;5.13;100.00;101723.34;5107505;28;20040;-87
2021/10/23 07:59:59;;;;;;;0.20;0.20;;;;;;;5.26;100.00;101727.81;5091605;28;20059;-86
2021/10/23 08:02:50;;;;;;;0.20;0.20;;;;;;;5.38;100.00;101734.16;5090513;28;20488;-87
2021/10/23 08:05:19;;;;;;;0.20;0.20;;;;;;;5.26;100.00;101706.22;5096028;28;20052;-86
2021/10/23 08:07:47;;;;;;;0.30;0.30;;;;;;;5.43;100.00;101737.03;5100869;28;20063;-88
2021/10/23 08:10:22;;;;;;;0.20;0.20;;;;;;;5.44;100.00;101748.66;5099763;28;20066;-86
2021/10/23 08:12:59;;;;;;;0.20;0.20;;;;;;;5.57;100.00;101745.88;5090058;28;20040;-85
2021/10/23 08:15:27;;;;;;;0.25;0.25;;;;;;;5.59;100.00;101751.03;5092884;28;20059;-88
2021/10/23 08:18:02;;;;;;;0.20;0.20;;;;;;;5.62;100.00;101764.94;5080891;28;20044;-87
2021/10/23 08:20:32;;;;;;;0.20;0.20;;;;;;;5.77;100.00;101756.53;5078321;28;20052;-84
2021/10/23 08:23:08;;;;;;;0.20;0.20;;;;;;;5.74;100.00;101756.13;5080168;28;20051;-84
2021/10/23 08:25:53;;;;;;;0.27;0.27;;;;;;;5.81;100.00;101765.00;5073330;28;20401;-86
2021/10/23 08:28:27;;;;;;;0.20;0.20;;;;;;;5.79;100.00;101759.81;5085864;28;20306;-77
2021/10/23 08:31:00;;;;;;;0.20;0.20;;;;;;;5.82;100.00;101772.06;5071626;28;20051;-84
2021/10/23 08:33:37;;;;;;;0.20;0.20;;;;;;;5.92;100.00;101775.09;5075219;28;20059;-84
2021/10/23 08:36:05;;;;;;;0.20;0.20;;;;;;;5.91;100.00;101783.41;5069741;28;20055;-84
2021/10/23 08:38:40;;;;;;;0.20;0.20;;;;;;;5.99;100.00;101780.44;5066506;28;20052;-84
2021/10/23 08:41:16;;;;;;;0.30;0.30;;;;;;;6.02;100.00;101782.72;5070891;28;20899;-84
2021/10/23 08:43:46;;;;;;;0.30;0.30;;;;;;;6.07;100.00;101785.56;5070992;28;20055;-85
2021/10/23 08:46:22;;;;;;;0.30;0.30;;;;;;;5.69;100.00;101728.94;5072517;28;20063;-84
2021/10/23 08:48:57;;;;;;;0.20;0.20;;;;;;;6.17;100.00;101784.25;5073380;28;20055;-84
2021/10/23 08:51:26;;;;;;;0.20;0.20;;;;;;;6.25;100.00;101781.25;5094674;28;20056;-83
2021/10/23 08:53:55;;;;;;;0.20;0.20;;;;;;;6.32;100.00;101792.81;5081087;28;20417;-84
2021/10/23 08:56:28;;;;;;;0.25;0.25;;;;;;;6.37;100.00;101787.56;5071902;28;20551;-84
2021/10/23 08:58:59;;;;;;;0.30;0.30;;;;;;;6.21;100.00;101769.22;5074622;28;20048;-84
2021/10/23 09:01:33;;;;;;;0.30;0.30;;;;;;;6.46;100.00;101785.38;5077960;28;20051;-84
2021/10/23 09:04:06;;;;;;;0.30;0.30;;;;;;;6.56;100.00;101791.13;5074027;28;20067;-83
2021/10/23 09:06:40;;;;;;;0.15;0.15;;;;;;;6.61;100.00;101799.34;5075549;28;20063;-83
2021/10/23 09:09:15;;;;;;;0.22;0.22;;;;;;;6.66;100.00;101787.88;5072034;28;20056;-82
2021/10/23 09:11:49;;;;;;;0.25;0.25;;;;;;;6.66;100.00;101795.16;5087198;28;20055;-83
2021/10/23 09:14:31;;;;;;;0.20;0.20;;;;;;;6.79;100.00;101805.81;5077845;28;20063;-82
2021/10/23 09:17:07;;;;;;;0.20;0.20;;;;;;;6.64;100.00;101769.16;5075999;28;20821;-85
2021/10/23 09:19:39;;;;;;;0.25;0.25;;;;;;;6.97;100.00;101813.94;5075740;28;20044;-84
2021/10/23 09:22:24;;;;;;;0.20;0.20;;;;;;;6.92;100.00;101831.91;5088402;28;20048;-84
2021/10/23 09:25:18;;;;;;;0.20;0.20;;;;;;;6.94;100.00;101832.50;5110818;28;20055;-85
2021/10/23 09:28:00;;;;;;;0.22;0.22;;;;;;;7.02;100.00;101823.25;5087555;28;20928;-83
2021/10/23 09:30:37;;;;;;;0.20;0.20;;;;;;;7.03;100.00;101823.03;5080340;28;20754;-83
2021/10/23 09:33:07;;;;;;;0.22;0.22;;;;;;;7.18;100.00;101838.88;5089768;28;20044;-85
2021/10/23 09:35:44;;;;;;;0.30;0.30;;;;;;;7.20;100.00;101822.41;5084802;28;20052;-86
2021/10/23 09:38:15;;;;;;;0.30;0.30;;;;;;;7.34;100.00;101831.16;5092594;28;20055;-83
2021/10/23 09:40:50;;;;;;;0.22;0.22;;;;;;;7.31;100.00;101825.13;5083517;28;20055;-83
2021/10/23 09:43:27;;;;;;;0.20;0.20;;;;;;;7.31;100.00;101827.03;5093149;28;20056;-83
2021/10/23 09:46:10;;;;;;;0.30;0.30;;;;;;;7.34;100.00;101833.88;5084217;28;20059;-83
2021/10/23 09:48:40;;;;;;;0.28;0.28;;;;;;;7.41;100.00;101835.41;5080100;28;20396;-84
2021/10/23 09:51:16;;;;;;;0.20;0.20;;;;;;;7.24;100.00;101799.22;5093245;28;20496;-85
2021/10/23 09:53:46;;;;;;;0.28;0.28;;;;;;;7.50;100.00;101838.63;5093627;28;20407;-84
2021/10/23 09:56:22;;;;;;;0.30;0.30;;;;;;;7.54;100.00;101844.41;5092904;28;20052;-86
2021/10/23 09:58:57;;;;;;;0.30;0.30;;;;;;;7.49;100.00;101848.63;5093745;28;20036;-85
2021/10/23 10:01:33;;;;;;;0.20;0.20;;;;;;;7.57;100.00;101838.53;5094650;28;20442;-85
2021/10/23 10:04:04;;;;;;;0.20;0.20;;;;;;;7.60;100.00;101847.03;5084330;28;20047;-89
2021/10/23 10:06:33;;;;;;;0.20;0.20;;;;;;;7.55;100.00;101840.66;5093451;28;20044;-84
2021/10/23 10:09:07;;;;;;;0.30;0.30;;;;;;;7.41;100.00;101818.34;5104859;28;20051;-84
2021/10/23 10:11:38;;;;;;;0.20;0.20;;;;;;;7.52;100.00;101836.50;5093093;28;20040;-84
2021/10/23 10:14:08;;;;;;;0.20;0.20;;;;;;;7.54;100.00;101830.84;5094229;28;20052;-83
2021/10/23 10:16:41;;;;;;;0.30;0.30;;;;;;;7.41;100.00;101818.34;5095906;28;20055;-84
2021/10/23 10:19:15;;;;;;;0.20;0.20;;;;;;;7.82;100.00;101847.31;5106511;28;20055;-84
2021/10/23 10:21:43;;;;;;;0.20;0.20;;;;;;;7.86;100.00;101857.69;5088915;28;20059;-83
2021/10/23 10:24:19;;;;;;;0.20;0.20;;;;;;;7.74;100.00;101853.06;5109900;28;20055;-86
2021/10/23 10:26:57;;;;;;;0.22;0.22;;;;;;;7.77;100.00;101860.72;5089843;28;20051;-83
2021/10/23 10:29:44;;;;;;;0.30;0.30;;;;;;;7.76;100.00;101852.81;5109419;27;20052;-85
2021/10/23 10:32:23;;;;;;;0.20;0.20;;;;;;;7.88;100.00;101869.13;5086112;28;20048;-84
2021/10/23 10:35:45;;;;;;;0.20;0.20;;;;;;;7.91;100.00;101876.78;5084368;28;20054;-85
2021/10/23 10:38:30;;;;;;;0.28;0.28;;;;;;;7.92;100.00;101870.31;5082174;28;20059;-83
2021/10/23 10:44:20;;;;;;;0.30;0.30;;;;;;;8.01;100.00;101879.78;5092886;28;20534;-84
2021/10/23 10:47:19;;;;;;;0.30;0.30;;;;;;;8.10;100.00;101889.19;5099531;28;20051;-85
2021/10/23 10:49:54;;;;;;;0.20;0.20;;;;;;;8.04;100.00;101889.28;5082080;28;20049;-84
2021/10/23 10:52:54;;;;;;;0.20;0.20;;;;;;;8.14;100.00;101895.81;5092605;28;20052;-85
2021/10/23 10:55:40;;;;;;;0.20;0.20;;;;;;;8.19;100.00;101884.28;5079758;28;20060;-84
2021/10/23 10:58:10;;;;;;;0.30;0.30;;;;;;;8.25;100.00;101888.75;5100522;28;20059;-84
2021/10/23 11:01:19;;;;;;;0.20;0.20;;;;;;;8.29;100.00;101892.63;5091929;28;20044;-87
2021/10/23 11:04:06;;;;;;;0.20;0.20;;;;;;;8.32;100.00;101897.59;5088595;28;20062;-84
2021/10/23 11:06:56;;;;;;;0.25;0.25;;;;;;;8.41;100.00;101897.25;5098552;28;20048;-83
2021/10/23 11:09:46;;;;;;;0.20;0.20;;;;;;;8.44;100.00;101892.19;5101154;28;20052;-85
2021/10/23 11:12:37;;;;;;;0.20;0.20;;;;;;;8.62;100.00;101898.59;5103454;28;20063;-83
2021/10/23 11:15:44;;;;;;;0.30;0.30;;;;;;;8.67;100.00;101899.53;5073079;28;20044;-86
2021/10/23 11:18:18;;;;;;;0.20;0.20;;;;;;;8.30;100.00;101856.34;5093101;28;20052;-84
2021/10/23 11:20:52;;;;;;;0.20;0.20;;;;;;;8.61;100.00;101894.22;5080183;28;20055;-82
2021/10/23 11:23:25;;;;;;;0.20;0.20;;;;;;;8.63;100.00;101900.22;5089609;28;20059;-84
2021/10/23 11:26:26;;;;;;;0.20;0.20;;;;;;;8.68;100.00;101903.88;5086506;28;20028;-82
2021/10/23 11:30:00;;;;;;;0.30;0.30;;;;;;;8.92;100.00;101911.19;5092891;28;20048;-83
2021/10/23 11:32:28;;;;;;;0.20;0.20;;;;;;;8.93;100.00;101894.66;5080511;28;20044;-84
2021/10/23 11:34:56;;;;;;;0.20;0.20;;;;;;;8.91;100.00;101902.22;5087112;28;20055;-86
2021/10/23 11:37:32;;;;;;;0.20;0.20;;;;;;;8.89;100.00;101900.81;5082754;28;20047;-85
2021/10/23 11:40:08;;;;;;;0.20;0.20;;;;;;;8.79;100.00;101912.25;5088449;28;20060;-85
2021/10/23 11:42:37;;;;;;;0.20;0.20;;;;;;;8.63;100.00;101906.50;5092030;28;20070;-85
2021/10/23 11:45:14;;;;;;;0.20;0.20;;;;;;;8.75;100.00;101916.50;5094835;28;20492;-85
2021/10/23 11:47:50;;;;;;;0.30;0.30;;;;;;;8.58;100.00;101922.66;5088002;28;20045;-84
2021/10/23 11:50:28;;;;;;;0.20;0.20;;;;;;;8.45;100.00;101876.75;5099708;28;20052;-85
2021/10/23 11:53:00;;;;;;;0.20;0.20;;;;;;;8.59;100.00;101907.19;5091282;28;20048;-86
2021/10/23 11:55:36;;;;;;;0.20;0.20;;;;;;;8.81;100.00;101913.69;5087204;28;20058;-87
2021/10/23 11:58:07;;;;;;;0.28;0.28;;;;;;;8.85;100.00;101909.44;5088606;28;20040;-81
2021/10/23 12:00:42;;;;;;;0.30;0.30;;;;;;;8.88;100.00;101920.84;5087422;28;20036;-82